Terminal Aerodrome Forecast
Issued by NWS

Home | Current Version | Previous Version | Text Only | Print | Product List | Glossary On
Versions: 1 2 3 4 5 6 7 8 9 10 11 12 13 14 15 16 17
000
FTUS46 KSTO 221100
TAFRBL
TAF
KRBL 221140Z 2212/2312 36005KT P6SM SCT005 OVC012
      TEMPO 2212/2215 6SM BR OVC004
     FM221700 34008KT P6SM SCT007
     FM230500 35002KT 4SM BR SKC=

USA.gov is the U.S. government's official web portal to all federal, state and local government web resources and services.